sensor_id;sensor_type;location;lat;lon;timestamp;P1;durP1;ratioP1;P2;durP2;ratioP2
2762;SDS011;1389;51.490;7.338;2023-11-21T00:02:21;715.20;;;137.30;;
2762;SDS011;1389;51.490;7.338;2023-11-21T00:04:48;715.80;;;137.50;;
2762;SDS011;1389;51.490;7.338;2023-11-21T00:07:15;715.90;;;137.55;;
2762;SDS011;1389;51.490;7.338;2023-11-21T00:09:41;716.70;;;138.10;;
2762;SDS011;1389;51.490;7.338;2023-11-21T00:12:08;715.90;;;137.60;;
2762;SDS011;1389;51.490;7.338;2023-11-21T00:14:39;715.55;;;137.50;;
2762;SDS011;1389;51.490;7.338;2023-11-21T00:17:06;715.70;;;137.83;;
2762;SDS011;1389;51.490;7.338;2023-11-21T00:19:32;715.20;;;137.40;;
2762;SDS011;1389;51.490;7.338;2023-11-21T00:22:00;715.90;;;138.10;;
2762;SDS011;1389;51.490;7.338;2023-11-21T00:24:26;716.03;;;138.80;;
2762;SDS011;1389;51.490;7.338;2023-11-21T00:26:53;717.00;;;139.90;;
2762;SDS011;1389;51.490;7.338;2023-11-21T00:29:19;716.40;;;139.45;;
2762;SDS011;1389;51.490;7.338;2023-11-21T00:31:45;716.00;;;139.00;;
2762;SDS011;1389;51.490;7.338;2023-11-21T00:34:12;717.10;;;140.20;;
2762;SDS011;1389;51.490;7.338;2023-11-21T00:36:38;717.30;;;139.93;;
2762;SDS011;1389;51.490;7.338;2023-11-21T00:39:05;717.00;;;139.77;;
2762;SDS011;1389;51.490;7.338;2023-11-21T00:41:31;717.70;;;140.00;;
2762;SDS011;1389;51.490;7.338;2023-11-21T00:43:58;717.80;;;139.90;;
2762;SDS011;1389;51.490;7.338;2023-11-21T00:46:24;717.95;;;140.10;;
2762;SDS011;1389;51.490;7.338;2023-11-21T00:48:53;718.00;;;140.10;;
2762;SDS011;1389;51.490;7.338;2023-11-21T00:51:20;717.50;;;140.02;;
2762;SDS011;1389;51.490;7.338;2023-11-21T00:53:47;716.80;;;139.40;;
2762;SDS011;1389;51.490;7.338;2023-11-21T00:56:14;717.10;;;140.30;;
2762;SDS011;1389;51.490;7.338;2023-11-21T00:58:40;717.20;;;140.50;;
2762;SDS011;1389;51.490;7.338;2023-11-21T01:01:09;717.60;;;140.70;;
2762;SDS011;1389;51.490;7.338;2023-11-21T01:03:35;718.13;;;141.50;;
2762;SDS011;1389;51.490;7.338;2023-11-21T01:06:02;717.63;;;141.15;;
2762;SDS011;1389;51.490;7.338;2023-11-21T01:08:28;718.10;;;141.82;;
2762;SDS011;1389;51.490;7.338;2023-11-21T01:10:55;718.00;;;141.40;;
2762;SDS011;1389;51.490;7.338;2023-11-21T01:13:21;718.03;;;141.20;;
2762;SDS011;1389;51.490;7.338;2023-11-21T01:15:47;718.42;;;141.35;;
2762;SDS011;1389;51.490;7.338;2023-11-21T01:18:14;718.80;;;141.60;;
2762;SDS011;1389;51.490;7.338;2023-11-21T01:20:40;718.10;;;141.10;;
2762;SDS011;1389;51.490;7.338;2023-11-21T01:23:06;718.10;;;141.30;;
2762;SDS011;1389;51.490;7.338;2023-11-21T01:25:33;718.00;;;141.20;;
2762;SDS011;1389;51.490;7.338;2023-11-21T01:27:59;717.40;;;140.50;;
2762;SDS011;1389;51.490;7.338;2023-11-21T01:30:25;717.70;;;140.70;;
2762;SDS011;1389;51.490;7.338;2023-11-21T01:32:52;717.80;;;140.80;;
2762;SDS011;1389;51.490;7.338;2023-11-21T01:35:18;718.00;;;140.90;;
2762;SDS011;1389;51.490;7.338;2023-11-21T01:37:44;717.80;;;140.70;;
2762;SDS011;1389;51.490;7.338;2023-11-21T01:40:11;717.80;;;140.40;;
2762;SDS011;1389;51.490;7.338;2023-11-21T01:42:39;718.00;;;140.75;;
2762;SDS011;1389;51.490;7.338;2023-11-21T01:45:06;717.90;;;140.63;;
2762;SDS011;1389;51.490;7.338;2023-11-21T01:47:33;716.70;;;139.80;;
2762;SDS011;1389;51.490;7.338;2023-11-21T01:50:01;717.20;;;140.10;;
2762;SDS011;1389;51.490;7.338;2023-11-21T01:52:30;717.33;;;140.27;;
2762;SDS011;1389;51.490;7.338;2023-11-21T01:54:57;716.38;;;139.40;;
2762;SDS011;1389;51.490;7.338;2023-11-21T01:57:24;716.47;;;139.70;;
2762;SDS011;1389;51.490;7.338;2023-11-21T01:59:50;716.60;;;139.80;;
2762;SDS011;1389;51.490;7.338;2023-11-21T02:02:18;716.60;;;139.75;;
2762;SDS011;1389;51.490;7.338;2023-11-21T02:04:45;716.60;;;140.10;;
2762;SDS011;1389;51.490;7.338;2023-11-21T02:07:11;716.65;;;139.80;;
2762;SDS011;1389;51.490;7.338;2023-11-21T02:09:37;716.10;;;139.55;;
2762;SDS011;1389;51.490;7.338;2023-11-21T02:12:07;716.80;;;140.10;;
2762;SDS011;1389;51.490;7.338;2023-11-21T02:14:35;716.70;;;139.90;;
2762;SDS011;1389;51.490;7.338;2023-11-21T02:17:02;715.72;;;139.27;;
2762;SDS011;1389;51.490;7.338;2023-11-21T02:19:29;715.58;;;139.30;;
2762;SDS011;1389;51.490;7.338;2023-11-21T02:21:59;716.20;;;140.00;;
2762;SDS011;1389;51.490;7.338;2023-11-21T02:24:28;715.80;;;139.82;;
2762;SDS011;1389;51.490;7.338;2023-11-21T02:26:55;714.90;;;139.20;;
2762;SDS011;1389;51.490;7.338;2023-11-21T02:29:21;715.40;;;139.80;;
2762;SDS011;1389;51.490;7.338;2023-11-21T02:31:53;714.80;;;139.50;;
2762;SDS011;1389;51.490;7.338;2023-11-21T02:34:20;715.80;;;140.00;;
2762;SDS011;1389;51.490;7.338;2023-11-21T02:36:46;716.50;;;140.73;;
2762;SDS011;1389;51.490;7.338;2023-11-21T02:39:16;716.60;;;140.70;;
2762;SDS011;1389;51.490;7.338;2023-11-21T02:41:43;715.80;;;139.60;;
2762;SDS011;1389;51.490;7.338;2023-11-21T02:44:10;716.00;;;139.65;;
2762;SDS011;1389;51.490;7.338;2023-11-21T02:46:36;715.78;;;139.50;;
2762;SDS011;1389;51.490;7.338;2023-11-21T02:49:04;715.80;;;139.32;;
2762;SDS011;1389;51.490;7.338;2023-11-21T02:51:37;715.63;;;139.30;;
2762;SDS011;1389;51.490;7.338;2023-11-21T02:54:05;715.10;;;138.90;;
2762;SDS011;1389;51.490;7.338;2023-11-21T02:56:33;715.30;;;138.90;;
2762;SDS011;1389;51.490;7.338;2023-11-21T02:59:00;715.80;;;139.18;;
2762;SDS011;1389;51.490;7.338;2023-11-21T03:01:26;716.13;;;139.50;;
2762;SDS011;1389;51.490;7.338;2023-11-21T03:03:53;716.30;;;139.57;;
2762;SDS011;1389;51.490;7.338;2023-11-21T03:06:20;717.00;;;139.93;;
2762;SDS011;1389;51.490;7.338;2023-11-21T03:08:46;717.10;;;140.10;;
2762;SDS011;1389;51.490;7.338;2023-11-21T03:11:13;717.60;;;140.82;;
2762;SDS011;1389;51.490;7.338;2023-11-21T03:13:40;718.50;;;141.00;;
2762;SDS011;1389;51.490;7.338;2023-11-21T03:16:08;718.90;;;141.30;;
2762;SDS011;1389;51.490;7.338;2023-11-21T03:18:34;719.20;;;141.50;;
2762;SDS011;1389;51.490;7.338;2023-11-21T03:21:01;719.40;;;141.90;;
2762;SDS011;1389;51.490;7.338;2023-11-21T03:23:28;719.35;;;142.00;;
2762;SDS011;1389;51.490;7.338;2023-11-21T03:25:54;719.90;;;142.30;;
2762;SDS011;1389;51.490;7.338;2023-11-21T03:28:20;720.10;;;142.20;;
2762;SDS011;1389;51.490;7.338;2023-11-21T03:30:47;720.15;;;142.50;;
2762;SDS011;1389;51.490;7.338;2023-11-21T03:33:13;720.80;;;143.27;;
2762;SDS011;1389;51.490;7.338;2023-11-21T03:35:40;720.70;;;143.48;;
2762;SDS011;1389;51.490;7.338;2023-11-21T03:38:07;720.40;;;143.30;;
2762;SDS011;1389;51.490;7.338;2023-11-21T03:40:33;720.30;;;143.20;;
2762;SDS011;1389;51.490;7.338;2023-11-21T03:43:00;720.60;;;143.20;;
2762;SDS011;1389;51.490;7.338;2023-11-21T03:45:26;720.70;;;143.40;;
2762;SDS011;1389;51.490;7.338;2023-11-21T03:47:53;720.60;;;143.15;;
2762;SDS011;1389;51.490;7.338;2023-11-21T03:50:19;720.88;;;143.30;;
2762;SDS011;1389;51.490;7.338;2023-11-21T03:52:45;720.40;;;142.90;;
2762;SDS011;1389;51.490;7.338;2023-11-21T03:55:12;720.50;;;142.70;;
2762;SDS011;1389;51.490;7.338;2023-11-21T03:57:38;721.13;;;143.20;;
2762;SDS011;1389;51.490;7.338;2023-11-21T04:00:05;720.75;;;142.75;;
2762;SDS011;1389;51.490;7.338;2023-11-21T04:02:34;721.20;;;143.40;;
2762;SDS011;1389;51.490;7.338;2023-11-21T04:05:00;720.60;;;143.30;;
2762;SDS011;1389;51.490;7.338;2023-11-21T04:07:27;721.40;;;144.03;;
2762;SDS011;1389;51.490;7.338;2023-11-21T04:09:53;721.30;;;143.80;;
2762;SDS011;1389;51.490;7.338;2023-11-21T04:12:19;721.30;;;143.80;;
2762;SDS011;1389;51.490;7.338;2023-11-21T04:14:46;721.15;;;143.80;;
2762;SDS011;1389;51.490;7.338;2023-11-21T04:17:12;720.95;;;144.10;;
2762;SDS011;1389;51.490;7.338;2023-11-21T04:19:38;720.80;;;144.00;;
2762;SDS011;1389;51.490;7.338;2023-11-21T04:22:05;720.60;;;143.93;;
2762;SDS011;1389;51.490;7.338;2023-11-21T04:24:31;720.60;;;144.25;;
2762;SDS011;1389;51.490;7.338;2023-11-21T04:26:58;719.80;;;144.20;;
2762;SDS011;1389;51.490;7.338;2023-11-21T04:29:24;719.80;;;144.33;;
2762;SDS011;1389;51.490;7.338;2023-11-21T04:31:50;720.20;;;144.40;;
2762;SDS011;1389;51.490;7.338;2023-11-21T04:34:17;719.45;;;144.07;;
2762;SDS011;1389;51.490;7.338;2023-11-21T04:36:44;719.73;;;144.70;;
2762;SDS011;1389;51.490;7.338;2023-11-21T04:39:10;718.92;;;144.80;;
2762;SDS011;1389;51.490;7.338;2023-11-21T04:41:37;719.42;;;144.52;;
2762;SDS011;1389;51.490;7.338;2023-11-21T04:44:05;719.00;;;144.13;;
2762;SDS011;1389;51.490;7.338;2023-11-21T04:46:31;719.00;;;144.50;;
2762;SDS011;1389;51.490;7.338;2023-11-21T04:48:58;719.10;;;144.80;;
2762;SDS011;1389;51.490;7.338;2023-11-21T04:51:25;719.50;;;145.40;;
2762;SDS011;1389;51.490;7.338;2023-11-21T04:53:51;719.20;;;145.30;;
2762;SDS011;1389;51.490;7.338;2023-11-21T04:56:17;719.28;;;145.43;;
2762;SDS011;1389;51.490;7.338;2023-11-21T04:58:44;719.40;;;145.80;;
2762;SDS011;1389;51.490;7.338;2023-11-21T05:01:10;720.03;;;146.13;;
2762;SDS011;1389;51.490;7.338;2023-11-21T05:03:37;718.97;;;145.00;;
2762;SDS011;1389;51.490;7.338;2023-11-21T05:06:04;718.35;;;144.18;;
2762;SDS011;1389;51.490;7.338;2023-11-21T05:08:30;718.13;;;143.68;;
2762;SDS011;1389;51.490;7.338;2023-11-21T05:10:57;717.70;;;143.07;;
2762;SDS011;1389;51.490;7.338;2023-11-21T05:13:23;717.20;;;142.60;;
2762;SDS011;1389;51.490;7.338;2023-11-21T05:15:55;717.10;;;142.50;;
2762;SDS011;1389;51.490;7.338;2023-11-21T05:18:22;717.40;;;142.70;;
2762;SDS011;1389;51.490;7.338;2023-11-21T05:20:52;717.50;;;142.90;;
2762;SDS011;1389;51.490;7.338;2023-11-21T05:23:19;717.28;;;142.60;;
2762;SDS011;1389;51.490;7.338;2023-11-21T05:25:45;717.40;;;142.80;;
2762;SDS011;1389;51.490;7.338;2023-11-21T05:28:12;716.60;;;141.90;;
2762;SDS011;1389;51.490;7.338;2023-11-21T05:30:38;716.83;;;142.10;;
2762;SDS011;1389;51.490;7.338;2023-11-21T05:33:05;716.50;;;141.80;;
2762;SDS011;1389;51.490;7.338;2023-11-21T05:35:32;716.03;;;141.48;;
2762;SDS011;1389;51.490;7.338;2023-11-21T05:37:58;716.50;;;142.10;;
2762;SDS011;1389;51.490;7.338;2023-11-21T05:40:24;716.30;;;142.20;;
2762;SDS011;1389;51.490;7.338;2023-11-21T05:42:53;716.30;;;142.10;;
2762;SDS011;1389;51.490;7.338;2023-11-21T05:45:19;716.28;;;142.10;;
2762;SDS011;1389;51.490;7.338;2023-11-21T05:47:46;716.30;;;142.00;;
2762;SDS011;1389;51.490;7.338;2023-11-21T05:50:13;715.90;;;141.17;;
2762;SDS011;1389;51.490;7.338;2023-11-21T05:52:41;716.35;;;141.75;;
2762;SDS011;1389;51.490;7.338;2023-11-21T05:55:07;715.95;;;141.50;;
2762;SDS011;1389;51.490;7.338;2023-11-21T05:57:34;714.90;;;140.50;;
2762;SDS011;1389;51.490;7.338;2023-11-21T06:00:04;715.20;;;140.80;;
2762;SDS011;1389;51.490;7.338;2023-11-21T06:02:57;715.20;;;141.00;;
2762;SDS011;1389;51.490;7.338;2023-11-21T06:05:24;714.17;;;140.45;;
2762;SDS011;1389;51.490;7.338;2023-11-21T06:07:54;715.40;;;140.90;;
2762;SDS011;1389;51.490;7.338;2023-11-21T06:10:24;716.00;;;141.60;;
2762;SDS011;1389;51.490;7.338;2023-11-21T06:12:51;714.80;;;140.63;;
2762;SDS011;1389;51.490;7.338;2023-11-21T06:15:17;714.53;;;140.50;;
2762;SDS011;1389;51.490;7.338;2023-11-21T06:17:48;715.38;;;141.00;;
2762;SDS011;1389;51.490;7.338;2023-11-21T06:20:18;716.15;;;141.77;;
2762;SDS011;1389;51.490;7.338;2023-11-21T06:22:45;716.00;;;141.65;;
2762;SDS011;1389;51.490;7.338;2023-11-21T06:25:12;716.10;;;141.70;;
2762;SDS011;1389;51.490;7.338;2023-11-21T06:30:05;715.90;;;141.30;;
2762;SDS011;1389;51.490;7.338;2023-11-21T06:32:32;715.90;;;141.40;;
2762;SDS011;1389;51.490;7.338;2023-11-21T06:34:58;716.00;;;141.60;;
2762;SDS011;1389;51.490;7.338;2023-11-21T06:37:26;715.42;;;140.98;;
2762;SDS011;1389;51.490;7.338;2023-11-21T06:39:52;714.60;;;140.73;;
2762;SDS011;1389;51.490;7.338;2023-11-21T06:42:19;715.40;;;141.20;;
2762;SDS011;1389;51.490;7.338;2023-11-21T06:44:46;714.83;;;140.52;;
2762;SDS011;1389;51.490;7.338;2023-11-21T06:47:13;715.40;;;140.60;;
2762;SDS011;1389;51.490;7.338;2023-11-21T06:49:41;715.55;;;141.10;;
2762;SDS011;1389;51.490;7.338;2023-11-21T06:52:07;716.00;;;141.30;;
2762;SDS011;1389;51.490;7.338;2023-11-21T06:54:33;715.20;;;141.00;;
2762;SDS011;1389;51.490;7.338;2023-11-21T06:57:00;716.10;;;141.57;;
2762;SDS011;1389;51.490;7.338;2023-11-21T06:59:28;715.70;;;141.40;;
2762;SDS011;1389;51.490;7.338;2023-11-21T07:01:54;716.05;;;141.20;;
2762;SDS011;1389;51.490;7.338;2023-11-21T07:04:21;716.00;;;141.32;;
2762;SDS011;1389;51.490;7.338;2023-11-21T07:06:47;716.50;;;141.63;;
2762;SDS011;1389;51.490;7.338;2023-11-21T07:09:14;716.35;;;141.30;;
2762;SDS011;1389;51.490;7.338;2023-11-21T07:11:41;716.50;;;141.70;;
2762;SDS011;1389;51.490;7.338;2023-11-21T07:14:07;716.70;;;142.00;;
2762;SDS011;1389;51.490;7.338;2023-11-21T07:16:34;716.50;;;141.90;;
2762;SDS011;1389;51.490;7.338;2023-11-21T07:19:06;715.90;;;141.32;;
2762;SDS011;1389;51.490;7.338;2023-11-21T07:21:32;716.70;;;142.00;;
2762;SDS011;1389;51.490;7.338;2023-11-21T07:24:03;716.50;;;142.40;;
2762;SDS011;1389;51.490;7.338;2023-11-21T07:26:30;716.25;;;142.15;;
2762;SDS011;1389;51.490;7.338;2023-11-21T07:28:56;716.72;;;142.65;;
2762;SDS011;1389;51.490;7.338;2023-11-21T07:31:23;716.70;;;142.80;;
2762;SDS011;1389;51.490;7.338;2023-11-21T07:33:49;717.10;;;143.80;;
2762;SDS011;1389;51.490;7.338;2023-11-21T07:36:16;716.90;;;143.63;;
2762;SDS011;1389;51.490;7.338;2023-11-21T07:38:46;716.78;;;144.05;;
2762;SDS011;1389;51.490;7.338;2023-11-21T07:41:13;716.83;;;143.90;;
2762;SDS011;1389;51.490;7.338;2023-11-21T07:43:43;717.50;;;144.50;;
2762;SDS011;1389;51.490;7.338;2023-11-21T07:46:10;717.55;;;144.50;;
2762;SDS011;1389;51.490;7.338;2023-11-21T07:48:38;717.90;;;145.15;;
2762;SDS011;1389;51.490;7.338;2023-11-21T07:51:04;718.10;;;145.30;;
2762;SDS011;1389;51.490;7.338;2023-11-21T07:53:32;718.20;;;145.80;;
2762;SDS011;1389;51.490;7.338;2023-11-21T07:56:03;718.70;;;145.80;;
2762;SDS011;1389;51.490;7.338;2023-11-21T07:58:30;719.10;;;146.10;;
2762;SDS011;1389;51.490;7.338;2023-11-21T08:00:59;719.70;;;146.75;;
2762;SDS011;1389;51.490;7.338;2023-11-21T08:03:25;719.10;;;146.30;;
2762;SDS011;1389;51.490;7.338;2023-11-21T08:05:52;718.80;;;146.30;;
2762;SDS011;1389;51.490;7.338;2023-11-21T08:08:19;719.13;;;146.38;;
2762;SDS011;1389;51.490;7.338;2023-11-21T08:10:46;718.80;;;146.13;;
2762;SDS011;1389;51.490;7.338;2023-11-21T08:13:13;718.90;;;146.30;;
2762;SDS011;1389;51.490;7.338;2023-11-21T08:15:41;719.05;;;146.80;;
2762;SDS011;1389;51.490;7.338;2023-11-21T08:18:11;718.90;;;146.60;;
2762;SDS011;1389;51.490;7.338;2023-11-21T08:20:40;719.10;;;147.20;;
2762;SDS011;1389;51.490;7.338;2023-11-21T08:23:06;718.93;;;146.80;;
2762;SDS011;1389;51.490;7.338;2023-11-21T08:25:33;718.65;;;146.70;;
2762;SDS011;1389;51.490;7.338;2023-11-21T08:28:00;718.63;;;146.63;;
2762;SDS011;1389;51.490;7.338;2023-11-21T08:30:27;719.42;;;147.02;;
2762;SDS011;1389;51.490;7.338;2023-11-21T08:32:55;719.30;;;146.70;;
2762;SDS011;1389;51.490;7.338;2023-11-21T08:35:23;718.95;;;146.43;;
2762;SDS011;1389;51.490;7.338;2023-11-21T08:37:51;719.55;;;147.00;;
2762;SDS011;1389;51.490;7.338;2023-11-21T08:40:20;719.50;;;146.80;;
2762;SDS011;1389;51.490;7.338;2023-11-21T08:42:47;718.90;;;146.40;;
2762;SDS011;1389;51.490;7.338;2023-11-21T08:45:14;719.80;;;147.27;;
2762;SDS011;1389;51.490;7.338;2023-11-21T08:47:42;719.10;;;146.70;;
2762;SDS011;1389;51.490;7.338;2023-11-21T08:50:12;719.70;;;147.25;;
2762;SDS011;1389;51.490;7.338;2023-11-21T08:52:39;719.90;;;147.40;;
2762;SDS011;1389;51.490;7.338;2023-11-21T08:55:06;720.20;;;147.50;;
2762;SDS011;1389;51.490;7.338;2023-11-21T08:57:37;720.90;;;147.90;;
2762;SDS011;1389;51.490;7.338;2023-11-21T09:00:04;721.20;;;148.20;;
2762;SDS011;1389;51.490;7.338;2023-11-21T09:02:35;720.78;;;147.50;;
2762;SDS011;1389;51.490;7.338;2023-11-21T09:05:03;720.25;;;147.00;;
2762;SDS011;1389;51.490;7.338;2023-11-21T09:07:29;720.60;;;147.90;;
2762;SDS011;1389;51.490;7.338;2023-11-21T09:09:56;721.28;;;148.27;;
2762;SDS011;1389;51.490;7.338;2023-11-21T09:12:22;720.60;;;148.00;;
2762;SDS011;1389;51.490;7.338;2023-11-21T09:14:50;720.00;;;147.60;;
2762;SDS011;1389;51.490;7.338;2023-11-21T09:17:17;720.00;;;147.60;;
2762;SDS011;1389;51.490;7.338;2023-11-21T09:19:44;719.90;;;148.00;;
2762;SDS011;1389;51.490;7.338;2023-11-21T09:22:17;719.80;;;148.00;;
2762;SDS011;1389;51.490;7.338;2023-11-21T09:24:43;719.80;;;148.50;;
2762;SDS011;1389;51.490;7.338;2023-11-21T09:27:10;719.88;;;148.15;;
2762;SDS011;1389;51.490;7.338;2023-11-21T09:29:36;719.80;;;148.20;;
2762;SDS011;1389;51.490;7.338;2023-11-21T09:32:04;719.58;;;148.23;;
2762;SDS011;1389;51.490;7.338;2023-11-21T09:34:33;720.80;;;148.30;;
2762;SDS011;1389;51.490;7.338;2023-11-21T09:37:04;720.00;;;147.65;;
2762;SDS011;1389;51.490;7.338;2023-11-21T09:39:32;719.78;;;148.10;;
2762;SDS011;1389;51.490;7.338;2023-11-21T09:42:12;720.03;;;147.75;;
2762;SDS011;1389;51.490;7.338;2023-11-21T09:44:54;720.20;;;147.90;;
2762;SDS011;1389;51.490;7.338;2023-11-21T09:47:24;719.90;;;147.90;;
2762;SDS011;1389;51.490;7.338;2023-11-21T09:49:50;720.10;;;148.30;;
2762;SDS011;1389;51.490;7.338;2023-11-21T09:52:26;719.92;;;148.40;;
2762;SDS011;1389;51.490;7.338;2023-11-21T09:54:53;719.83;;;148.10;;
2762;SDS011;1389;51.490;7.338;2023-11-21T09:57:23;720.20;;;148.30;;
2762;SDS011;1389;51.490;7.338;2023-11-21T09:59:50;720.92;;;148.70;;
2762;SDS011;1389;51.490;7.338;2023-11-21T10:02:22;720.90;;;148.60;;
2762;SDS011;1389;51.490;7.338;2023-11-21T10:04:51;721.17;;;149.30;;
2762;SDS011;1389;51.490;7.338;2023-11-21T10:07:18;720.50;;;148.05;;
2762;SDS011;1389;51.490;7.338;2023-11-21T10:09:45;720.30;;;147.97;;
2762;SDS011;1389;51.490;7.338;2023-11-21T10:12:11;719.90;;;147.63;;
2762;SDS011;1389;51.490;7.338;2023-11-21T10:14:40;719.30;;;147.43;;
2762;SDS011;1389;51.490;7.338;2023-11-21T10:17:12;718.60;;;146.70;;
2762;SDS011;1389;51.490;7.338;2023-11-21T10:19:39;719.10;;;146.90;;
2762;SDS011;1389;51.490;7.338;2023-11-21T10:22:06;719.30;;;146.95;;
2762;SDS011;1389;51.490;7.338;2023-11-21T10:24:32;719.20;;;146.73;;
2762;SDS011;1389;51.490;7.338;2023-11-21T10:26:59;719.80;;;147.02;;
2762;SDS011;1389;51.490;7.338;2023-11-21T10:29:30;718.80;;;146.50;;
2762;SDS011;1389;51.490;7.338;2023-11-21T10:32:04;720.10;;;147.60;;
2762;SDS011;1389;51.490;7.338;2023-11-21T10:34:31;719.30;;;147.35;;
2762;SDS011;1389;51.490;7.338;2023-11-21T10:36:57;719.00;;;147.40;;
2762;SDS011;1389;51.490;7.338;2023-11-21T10:39:24;719.10;;;147.90;;
2762;SDS011;1389;51.490;7.338;2023-11-21T10:41:56;718.33;;;148.20;;
2762;SDS011;1389;51.490;7.338;2023-11-21T10:44:22;717.50;;;148.10;;
2762;SDS011;1389;51.490;7.338;2023-11-21T10:46:50;717.60;;;148.25;;
2762;SDS011;1389;51.490;7.338;2023-11-21T10:49:18;716.70;;;147.10;;
2762;SDS011;1389;51.490;7.338;2023-11-21T10:51:45;718.00;;;148.50;;
2762;SDS011;1389;51.490;7.338;2023-11-21T10:54:11;717.40;;;146.90;;
2762;SDS011;1389;51.490;7.338;2023-11-21T10:56:39;717.65;;;147.32;;
2762;SDS011;1389;51.490;7.338;2023-11-21T10:59:09;717.20;;;146.80;;
2762;SDS011;1389;51.490;7.338;2023-11-21T11:01:42;717.33;;;146.80;;
2762;SDS011;1389;51.490;7.338;2023-11-21T11:04:08;716.90;;;146.40;;
2762;SDS011;1389;51.490;7.338;2023-11-21T11:06:41;716.40;;;146.10;;
2762;SDS011;1389;51.490;7.338;2023-11-21T11:09:07;717.50;;;146.70;;
2762;SDS011;1389;51.490;7.338;2023-11-21T11:11:34;717.60;;;147.30;;
2762;SDS011;1389;51.490;7.338;2023-11-21T11:14:04;717.30;;;147.02;;
2762;SDS011;1389;51.490;7.338;2023-11-21T11:16:32;717.30;;;147.30;;
2762;SDS011;1389;51.490;7.338;2023-11-21T11:18:59;716.60;;;147.20;;
2762;SDS011;1389;51.490;7.338;2023-11-21T11:27:00;716.00;;;146.40;;
2762;SDS011;1389;51.490;7.338;2023-11-21T11:32:12;714.90;;;145.50;;
2762;SDS011;1389;51.490;7.338;2023-11-21T11:34:44;714.70;;;145.15;;
2762;SDS011;1389;51.490;7.338;2023-11-21T11:37:12;715.60;;;145.60;;
2762;SDS011;1389;51.490;7.338;2023-11-21T11:39:40;717.00;;;147.20;;
2762;SDS011;1389;51.490;7.338;2023-11-21T11:42:14;715.30;;;144.90;;
2762;SDS011;1389;51.490;7.338;2023-11-21T11:50:06;715.50;;;144.10;;
2762;SDS011;1389;51.490;7.338;2023-11-21T11:55:00;716.50;;;143.80;;
2762;SDS011;1389;51.490;7.338;2023-11-21T11:57:26;717.20;;;144.43;;
2762;SDS011;1389;51.490;7.338;2023-11-21T12:02:41;717.30;;;144.20;;
2762;SDS011;1389;51.490;7.338;2023-11-21T12:05:09;717.90;;;144.20;;
2762;SDS011;1389;51.490;7.338;2023-11-21T12:07:43;718.90;;;145.40;;
2762;SDS011;1389;51.490;7.338;2023-11-21T12:10:14;718.70;;;145.63;;
2762;SDS011;1389;51.490;7.338;2023-11-21T12:12:47;719.85;;;147.20;;
2762;SDS011;1389;51.490;7.338;2023-11-21T12:15:13;720.50;;;147.50;;
2762;SDS011;1389;51.490;7.338;2023-11-21T12:17:43;720.50;;;147.50;;
2762;SDS011;1389;51.490;7.338;2023-11-21T12:20:11;721.50;;;148.48;;
2762;SDS011;1389;51.490;7.338;2023-11-21T12:22:48;721.22;;;148.07;;
2762;SDS011;1389;51.490;7.338;2023-11-21T12:25:19;721.80;;;148.80;;
2762;SDS011;1389;51.490;7.338;2023-11-21T12:27:47;722.60;;;149.70;;
2762;SDS011;1389;51.490;7.338;2023-11-21T12:30:15;721.70;;;149.30;;
2762;SDS011;1389;51.490;7.338;2023-11-21T12:32:43;721.83;;;149.60;;
2762;SDS011;1389;51.490;7.338;2023-11-21T12:35:11;721.60;;;150.10;;
2762;SDS011;1389;51.490;7.338;2023-11-21T12:37:38;721.30;;;150.70;;
2762;SDS011;1389;51.490;7.338;2023-11-21T12:40:05;720.92;;;150.30;;
2762;SDS011;1389;51.490;7.338;2023-11-21T12:42:33;721.20;;;150.70;;
2762;SDS011;1389;51.490;7.338;2023-11-21T12:47:49;720.30;;;151.43;;
2762;SDS011;1389;51.490;7.338;2023-11-21T12:50:23;719.90;;;151.30;;
2762;SDS011;1389;51.490;7.338;2023-11-21T12:52:54;719.30;;;151.40;;
2762;SDS011;1389;51.490;7.338;2023-11-21T12:55:24;719.80;;;152.30;;
2762;SDS011;1389;51.490;7.338;2023-11-21T12:57:54;719.00;;;151.77;;
2762;SDS011;1389;51.490;7.338;2023-11-21T13:00:44;719.50;;;152.80;;
2762;SDS011;1389;51.490;7.338;2023-11-21T13:03:09;719.45;;;152.90;;
2762;SDS011;1389;51.490;7.338;2023-11-21T13:05:38;719.70;;;152.73;;
2762;SDS011;1389;51.490;7.338;2023-11-21T13:08:08;719.30;;;152.20;;
2762;SDS011;1389;51.490;7.338;2023-11-21T13:10:37;719.90;;;152.70;;
2762;SDS011;1389;51.490;7.338;2023-11-21T13:13:05;720.30;;;152.90;;
2762;SDS011;1389;51.490;7.338;2023-11-21T13:15:34;720.00;;;152.13;;
2762;SDS011;1389;51.490;7.338;2023-11-21T13:18:01;719.97;;;152.40;;
2762;SDS011;1389;51.490;7.338;2023-11-21T13:20:29;720.58;;;153.05;;
2762;SDS011;1389;51.490;7.338;2023-11-21T13:22:56;720.53;;;153.15;;
2762;SDS011;1389;51.490;7.338;2023-11-21T13:25:28;720.90;;;153.30;;
2762;SDS011;1389;51.490;7.338;2023-11-21T13:27:54;720.60;;;152.32;;
2762;SDS011;1389;51.490;7.338;2023-11-21T13:30:21;719.28;;;152.90;;
2762;SDS011;1389;51.490;7.338;2023-11-21T13:32:59;718.60;;;152.77;;
2762;SDS011;1389;51.490;7.338;2023-11-21T13:35:31;718.60;;;153.00;;
2762;SDS011;1389;51.490;7.338;2023-11-21T13:38:04;718.20;;;153.63;;
2762;SDS011;1389;51.490;7.338;2023-11-21T13:40:32;717.00;;;153.70;;
2762;SDS011;1389;51.490;7.338;2023-11-21T13:43:00;716.55;;;154.20;;
2762;SDS011;1389;51.490;7.338;2023-11-21T13:45:29;710.88;;;154.65;;
2762;SDS011;1389;51.490;7.338;2023-11-21T13:47:56;706.85;;;153.10;;
2762;SDS011;1389;51.490;7.338;2023-11-21T13:50:25;706.60;;;153.50;;
2762;SDS011;1389;51.490;7.338;2023-11-21T13:52:59;707.40;;;153.80;;
2762;SDS011;1389;51.490;7.338;2023-11-21T13:55:36;707.10;;;152.70;;
2762;SDS011;1389;51.490;7.338;2023-11-21T13:58:05;705.50;;;153.20;;
2762;SDS011;1389;51.490;7.338;2023-11-21T14:00:35;704.47;;;152.98;;
2762;SDS011;1389;51.490;7.338;2023-11-21T14:03:07;702.00;;;152.70;;
2762;SDS011;1389;51.490;7.338;2023-11-21T14:05:41;702.30;;;153.85;;
2762;SDS011;1389;51.490;7.338;2023-11-21T14:08:08;701.50;;;154.20;;
2762;SDS011;1389;51.490;7.338;2023-11-21T14:10:37;701.30;;;155.00;;
2762;SDS011;1389;51.490;7.338;2023-11-21T14:13:08;700.92;;;154.82;;
2762;SDS011;1389;51.490;7.338;2023-11-21T14:15:41;699.80;;;154.48;;
2762;SDS011;1389;51.490;7.338;2023-11-21T14:18:11;701.10;;;155.40;;
2762;SDS011;1389;51.490;7.338;2023-11-21T14:20:40;700.90;;;155.60;;
2762;SDS011;1389;51.490;7.338;2023-11-21T14:23:07;700.40;;;155.90;;
2762;SDS011;1389;51.490;7.338;2023-11-21T14:25:35;698.72;;;154.80;;
2762;SDS011;1389;51.490;7.338;2023-11-21T14:28:03;699.30;;;155.50;;
2762;SDS011;1389;51.490;7.338;2023-11-21T14:30:34;698.78;;;156.18;;
2762;SDS011;1389;51.490;7.338;2023-11-21T14:33:01;698.40;;;156.10;;
2762;SDS011;1389;51.490;7.338;2023-11-21T14:35:28;699.30;;;156.70;;
2762;SDS011;1389;51.490;7.338;2023-11-21T14:37:58;699.20;;;156.50;;
2762;SDS011;1389;51.490;7.338;2023-11-21T14:40:26;700.00;;;156.90;;
2762;SDS011;1389;51.490;7.338;2023-11-21T14:42:58;700.17;;;156.00;;
2762;SDS011;1389;51.490;7.338;2023-11-21T14:45:25;701.10;;;156.00;;
2762;SDS011;1389;51.490;7.338;2023-11-21T14:47:52;701.55;;;155.68;;
2762;SDS011;1389;51.490;7.338;2023-11-21T14:50:30;702.10;;;156.40;;